Time;durP1;ratioP1;P1;durP2;ratioP2;P2;SDS_P1;SDS_P2;PMS_P1;PMS_P2;Temp;Humidity;BMP_temperature;BMP_pressure;BME280_temperature;BME280_humidity;BME280_pressure;Samples;Min_cycle;Max_cycle;Signal;HPM_P1;HPM_P2
2023/05/04 00:01:21;;;;;;;2.58;2.10;;;15.80;99.90;;;;;;1862301;76;21121;-80
2023/05/04 00:04:13;;;;;;;2.20;2.00;;;15.80;99.90;;;;;;1872755;76;21167;-79
2023/05/04 00:07:04;;;;;;;2.50;2.30;;;15.90;99.90;;;;;;1856234;76;21103;-79
2023/05/04 00:09:56;;;;;;;2.67;2.17;;;15.80;99.90;;;;;;1887367;75;21150;-79
2023/05/04 00:12:47;;;;;;;2.77;2.10;;;15.70;99.90;;;;;;1856491;76;21138;-79
2023/05/04 00:18:16;;;;;;;2.60;1.90;;;15.60;99.90;;;;;;1942721;72;22205;-80
2023/05/04 00:21:08;;;;;;;2.62;2.10;;;15.60;99.90;;;;;;1924763;73;21662;-80
2023/05/04 00:24:00;;;;;;;5.78;2.75;;;15.60;99.90;;;;;;1921999;73;21145;-80
2023/05/04 00:26:51;;;;;;;2.77;2.10;;;15.50;99.90;;;;;;1931504;73;21209;-80
2023/05/04 00:29:43;;;;;;;3.27;2.70;;;15.50;99.90;;;;;;1921737;73;21054;-80
2023/05/04 00:35:13;;;;;;;3.83;2.00;;;15.40;99.90;;;;;;1938700;72;22194;-80
2023/05/04 00:38:05;;;;;;;2.20;2.00;;;15.40;99.90;;;;;;1904186;75;21170;-79
2023/05/04 00:40:57;;;;;;;2.60;2.20;;;15.20;99.90;;;;;;1901942;75;21162;-79
2023/05/04 00:43:50;;;;;;;3.20;2.10;;;15.00;99.90;;;;;;1909506;74;21121;-79
2023/05/04 00:49:23;;;;;;;3.90;2.17;;;15.10;99.90;;;;;;1953466;72;22165;-79
2023/05/04 00:52:17;;;;;;;2.37;2.08;;;15.10;99.90;;;;;;1906121;75;21649;-79
2023/05/04 00:55:09;;;;;;;3.17;2.30;;;15.10;99.90;;;;;;1909474;74;21090;-79
2023/05/04 00:58:01;;;;;;;2.25;1.92;;;15.20;99.90;;;;;;1904839;74;21201;-79
2023/05/04 01:00:55;;;;;;;3.80;2.12;;;15.20;99.90;;;;;;1872790;75;21102;-79
2023/05/04 01:03:46;;;;;;;3.60;2.20;;;15.20;99.90;;;;;;1915469;74;21439;-81
2023/05/04 01:06:43;;;;;;;2.35;1.90;;;15.20;99.90;;;;;;1912345;74;21055;-80
2023/05/04 01:12:17;;;;;;;3.12;2.30;;;15.20;99.90;;;;;;1932872;72;22244;-80
2023/05/04 01:15:11;;;;;;;3.67;2.22;;;15.20;99.90;;;;;;1897426;75;21063;-79
2023/05/04 01:18:03;;;;;;;2.55;2.33;;;15.20;99.90;;;;;;1890201;75;21587;-79
2023/05/04 01:23:34;;;;;;;2.50;2.27;;;15.10;99.90;;;;;;1928018;72;22157;-79
2023/05/04 01:26:28;;;;;;;3.75;2.50;;;15.20;99.90;;;;;;1883995;75;21228;-79
2023/05/04 01:32:08;;;;;;;3.85;2.10;;;15.20;99.90;;;;;;1935905;72;22260;-79
2023/05/04 01:35:00;;;;;;;2.45;2.25;;;15.20;99.90;;;;;;1897153;74;21176;-79
2023/05/04 01:37:51;;;;;;;2.47;2.27;;;15.20;99.90;;;;;;1906449;74;21124;-79
2023/05/04 01:40:43;;;;;;;3.75;2.40;;;15.20;99.90;;;;;;1903255;74;21163;-81
2023/05/04 01:43:36;;;;;;;5.33;2.30;;;15.20;99.90;;;;;;1888508;75;21110;-79
2023/05/04 01:46:28;;;;;;;4.55;2.30;;;15.20;99.90;;;;;;1898635;74;21047;-80
2023/05/04 01:49:19;;;;;;;3.33;2.27;;;15.10;99.90;;;;;;1906761;75;21650;-79
2023/05/04 01:52:12;;;;;;;2.75;2.35;;;15.10;99.90;;;;;;1896863;75;21109;-80
2023/05/04 01:55:04;;;;;;;4.00;2.45;;;15.10;99.90;;;;;;1901055;74;21213;-80
2023/05/04 02:00:35;;;;;;;2.45;2.10;;;15.00;99.90;;;;;;1960097;72;22229;-79
2023/05/04 02:06:06;;;;;;;3.15;2.37;;;14.70;99.90;;;;;;1959176;72;22606;-79
2023/05/04 02:11:37;;;;;;;4.28;2.62;;;14.50;99.90;;;;;;1934225;72;22213;-79
2023/05/04 02:14:29;;;;;;;3.40;2.35;;;14.40;99.90;;;;;;1888626;75;21565;-81
2023/05/04 02:19:59;;;;;;;5.08;2.33;;;14.20;99.90;;;;;;1942946;72;22157;-79
2023/05/04 02:28:13;;;;;;;2.95;2.42;;;14.30;99.90;;;;;;1939270;72;22205;-79
2023/05/04 02:31:04;;;;;;;3.25;2.62;;;14.10;99.90;;;;;;1904285;75;21110;-79
2023/05/04 02:36:40;;;;;;;4.05;2.37;;;14.20;99.90;;;;;;1965064;72;22166;-79
2023/05/04 02:39:31;;;;;;;3.42;2.47;;;14.20;99.90;;;;;;1927125;73;21096;-79
2023/05/04 02:42:24;;;;;;;3.72;2.55;;;14.30;99.90;;;;;;1933447;73;21176;-79
2023/05/04 02:45:16;;;;;;;4.15;2.60;;;14.20;99.90;;;;;;1917344;75;21156;-79
2023/05/04 02:48:07;;;;;;;3.08;2.50;;;14.30;99.90;;;;;;1927029;73;21078;-79
2023/05/04 02:53:40;;;;;;;2.50;2.30;;;14.40;99.90;;;;;;1956252;72;22180;-79
2023/05/04 02:59:10;;;;;;;3.15;2.30;;;14.30;99.90;;;;;;1947362;72;22293;-79
2023/05/04 03:02:01;;;;;;;3.17;2.33;;;14.30;99.90;;;;;;1937579;73;21118;-79
2023/05/04 03:04:52;;;;;;;2.20;2.00;;;14.40;99.90;;;;;;1919084;73;21072;-79
2023/05/04 03:10:24;;;;;;;3.50;2.52;;;14.30;99.90;;;;;;1930990;72;22186;-79
2023/05/04 03:15:58;;;;;;;2.72;2.10;;;14.20;99.90;;;;;;1944685;72;22502;-79
2023/05/04 03:18:50;;;;;;;3.00;2.27;;;14.20;99.90;;;;;;1907557;74;21569;-79
2023/05/04 03:24:26;;;;;;;3.65;2.50;;;14.20;99.90;;;;;;1955530;72;22279;-79
2023/05/04 03:29:58;;;;;;;2.33;2.10;;;14.20;99.90;;;;;;1921382;72;22632;-79
2023/05/04 03:32:50;;;;;;;2.37;2.17;;;14.20;99.90;;;;;;1897462;73;21180;-79
2023/05/04 03:38:21;;;;;;;8.00;2.33;;;14.30;99.90;;;;;;1931719;72;22244;-79
2023/05/04 03:41:13;;;;;;;3.50;2.27;;;14.20;99.90;;;;;;1893467;75;21106;-79
2023/05/04 03:44:05;;;;;;;3.15;2.17;;;14.30;99.90;;;;;;1896250;75;21102;-81
2023/05/04 03:49:36;;;;;;;2.58;2.33;;;14.20;99.90;;;;;;1931529;72;22222;-79
2023/05/04 03:55:10;;;;;;;3.25;2.40;;;14.10;99.90;;;;;;1941989;72;22240;-79
2023/05/04 03:58:03;;;;;;;3.70;2.50;;;14.10;99.90;;;;;;1894498;75;21098;-81
2023/05/04 04:03:35;;;;;;;2.50;2.30;;;14.00;99.90;;;;;;1937884;72;22227;-79
2023/05/04 04:09:06;;;;;;;4.47;2.58;;;13.90;99.90;;;;;;1942725;72;22249;-79
2023/05/04 04:12:01;;;;;;;2.65;2.30;;;14.00;99.90;;;;;;1922234;73;21071;-79
2023/05/04 04:14:52;;;;;;;2.87;2.12;;;14.00;99.90;;;;;;1902608;75;21147;-79
2023/05/04 04:17:43;;;;;;;4.42;2.90;;;14.10;99.90;;;;;;1934152;73;21043;-81
2023/05/04 04:23:17;;;;;;;3.58;2.67;;;14.00;99.90;;;;;;1939664;72;22197;-79
2023/05/04 04:28:49;;;;;;;3.87;2.70;;;13.90;99.90;;;;;;1944103;72;22151;-79
2023/05/04 04:34:18;;;;;;;4.35;2.92;;;13.90;99.90;;;;;;1934703;72;22350;-79
2023/05/04 04:37:09;;;;;;;4.30;3.17;;;13.90;99.90;;;;;;1887866;75;21121;-79
2023/05/04 04:40:01;;;;;;;3.70;3.02;;;13.90;99.90;;;;;;1895461;75;21102;-79
2023/05/04 04:42:52;;;;;;;3.67;2.85;;;13.80;99.90;;;;;;1889189;75;21122;-79
2023/05/04 04:48:24;;;;;;;3.50;3.00;;;13.60;99.90;;;;;;1929257;72;22149;-79
2023/05/04 04:51:16;;;;;;;5.62;3.08;;;13.80;99.90;;;;;;1892768;75;21160;-80
2023/05/04 04:54:07;;;;;;;3.83;2.80;;;13.70;99.90;;;;;;1891635;75;21164;-80
2023/05/04 04:59:42;;;;;;;10.63;3.90;;;13.70;99.90;;;;;;1952288;72;22221;-79
2023/05/04 05:02:34;;;;;;;5.58;3.20;;;13.80;99.90;;;;;;1937560;73;21151;-80
2023/05/04 05:05:25;;;;;;;5.25;2.90;;;13.80;99.90;;;;;;1917001;73;21113;-80
2023/05/04 05:10:57;;;;;;;4.58;3.22;;;13.70;99.90;;;;;;1933629;72;22206;-79
2023/05/04 05:13:48;;;;;;;4.85;3.50;;;13.70;99.90;;;;;;1929391;73;21118;-79
2023/05/04 05:19:21;;;;;;;5.53;3.45;;;14.00;99.90;;;;;;1942993;72;22242;-80
2023/05/04 05:22:13;;;;;;;5.87;3.12;;;13.90;99.90;;;;;;1894016;75;21151;-79
2023/05/04 05:25:05;;;;;;;7.58;3.15;;;13.90;99.90;;;;;;1909406;75;21184;-79
2023/05/04 05:27:56;;;;;;;5.58;3.37;;;14.00;99.90;;;;;;1899758;75;21158;-79
2023/05/04 05:30:50;;;;;;;5.12;3.15;;;13.90;99.90;;;;;;1844190;77;21120;-79
2023/05/04 05:33:42;;;;;;;3.65;3.27;;;13.80;99.90;;;;;;1883577;75;21110;-79
2023/05/04 05:39:17;;;;;;;4.42;3.00;;;13.90;99.90;;;;;;1931879;72;22212;-81
2023/05/04 05:44:53;;;;;;;5.85;3.30;;;14.10;99.90;;;;;;1941372;72;22174;-80
2023/05/04 05:47:44;;;;;;;5.12;3.20;;;14.10;99.90;;;;;;1918716;73;21119;-79
2023/05/04 05:53:20;;;;;;;5.47;3.90;;;14.30;99.90;;;;;;1935657;72;28516;-79
2023/05/04 05:58:51;;;;;;;5.58;4.03;;;14.40;99.90;;;;;;1932273;72;22347;-81
2023/05/04 06:04:24;;;;;;;6.92;3.27;;;14.40;99.90;;;;;;1942737;72;22263;-76
2023/05/04 06:07:16;;;;;;;5.97;3.65;;;14.40;99.90;;;;;;1893579;75;21195;-92
2023/05/04 06:10:09;;;;;;;4.00;3.35;;;14.50;99.90;;;;;;1891105;75;21159;-92
2023/05/04 06:13:01;;;;;;;5.20;3.87;;;14.50;99.90;;;;;;1845437;78;21200;-92
2023/05/04 06:15:53;;;;;;;6.92;4.22;;;14.50;99.90;;;;;;1845526;78;21168;-91
2023/05/04 06:18:44;;;;;;;8.33;4.08;;;14.60;99.90;;;;;;1866620;75;21059;-92
2023/05/04 06:21:36;;;;;;;4.75;3.77;;;14.70;99.90;;;;;;1905313;75;21106;-92
2023/05/04 06:24:29;;;;;;;4.95;3.87;;;14.70;99.90;;;;;;1905374;75;21115;-92
2023/05/04 06:27:21;;;;;;;7.47;3.72;;;14.80;99.90;;;;;;1905693;75;21090;-91
2023/05/04 06:30:16;;;;;;;6.62;4.12;;;14.90;99.90;;;;;;1904819;75;21188;-92
2023/05/04 06:33:08;;;;;;;8.03;3.67;;;14.90;99.90;;;;;;1905535;75;21102;-93
2023/05/04 06:36:00;;;;;;;6.83;3.33;;;15.00;99.90;;;;;;1905234;75;21201;-91
2023/05/04 06:38:52;;;;;;;7.30;3.15;;;15.10;99.90;;;;;;1905047;75;21218;-92
2023/05/04 06:41:43;;;;;;;6.22;4.20;;;15.10;99.90;;;;;;1873059;76;21132;-92
2023/05/04 06:44:40;;;;;;;4.72;3.35;;;15.20;99.90;;;;;;1879826;75;21152;-93
2023/05/04 06:47:33;;;;;;;7.80;3.65;;;15.30;99.90;;;;;;1905455;75;21102;-91
2023/05/04 06:50:24;;;;;;;7.72;3.45;;;15.30;99.90;;;;;;1905816;75;21056;-93
2023/05/04 06:53:16;;;;;;;5.65;3.50;;;15.40;99.90;;;;;;1918562;74;21087;-92
2023/05/04 06:56:09;;;;;;;7.17;4.05;;;15.50;99.90;;;;;;1904553;74;21098;-93
2023/05/04 06:59:01;;;;;;;6.62;4.22;;;15.60;99.90;;;;;;1902907;75;21171;-93
2023/05/04 07:01:52;;;;;;;5.12;3.67;;;15.70;99.90;;;;;;1903141;75;21135;-93
2023/05/04 07:04:43;;;;;;;6.40;4.10;;;15.80;99.90;;;;;;1902934;75;21118;-94
2023/05/04 07:07:36;;;;;;;6.33;3.80;;;16.00;99.90;;;;;;1874090;76;21605;-92
2023/05/04 07:10:28;;;;;;;6.25;4.62;;;16.10;99.90;;;;;;1899218;75;21142;-92
2023/05/04 07:13:19;;;;;;;7.42;3.87;;;16.20;99.90;;;;;;1905676;75;21123;-93
2023/05/04 07:16:11;;;;;;;5.08;4.28;;;16.30;99.90;;;;;;1906003;75;21130;-93
2023/05/04 07:19:03;;;;;;;5.10;4.00;;;16.30;99.90;;;;;;1905619;75;21164;-93
2023/05/04 18:29:48;;;;;;;2.47;0.80;;;23.50;77.00;;;;;;1943036;70;21124;-93
2023/05/04 18:32:40;;;;;;;5.58;0.95;;;23.50;77.50;;;;;;1934143;74;21044;-93
2023/05/04 18:35:31;;;;;;;2.75;0.80;;;23.30;78.30;;;;;;1910508;75;21062;-92
2023/05/04 18:38:25;;;;;;;2.30;0.80;;;23.30;78.40;;;;;;1910465;75;21273;-93
2023/05/04 18:41:16;;;;;;;0.95;0.70;;;23.20;79.20;;;;;;1906152;75;21087;-93
2023/05/04 18:44:08;;;;;;;0.98;0.57;;;23.10;79.10;;;;;;1906379;75;21098;-92
2023/05/04 18:47:00;;;;;;;3.02;0.80;;;23.10;79.00;;;;;;1906578;75;21164;-93
2023/05/04 18:49:55;;;;;;;3.22;0.78;;;23.00;78.60;;;;;;1905528;75;21102;-93
2023/05/04 20:11:09;;;;;;;1.92;0.80;;;21.20;90.90;;;;;;1988483;71;22150;-76
2023/05/04 20:16:41;;;;;;;6.72;0.72;;;21.10;91.30;;;;;;1936581;72;22631;-76
2023/05/04 20:19:32;;;;;;;1.98;0.82;;;21.00;91.00;;;;;;1911975;75;21126;-76
2023/05/04 20:25:02;;;;;;;2.25;0.85;;;20.90;91.20;;;;;;1935010;72;22224;-76
2023/05/04 20:27:53;;;;;;;1.25;0.62;;;20.80;91.10;;;;;;1881782;75;21167;-76
2023/05/04 20:30:45;;;;;;;2.83;0.98;;;20.70;91.60;;;;;;1913085;75;21103;-76
2023/05/04 20:36:17;;;;;;;2.80;0.78;;;20.60;92.40;;;;;;1940159;72;22164;-76
2023/05/04 20:41:48;;;;;;;3.33;0.75;;;20.50;92.80;;;;;;1932826;72;22227;-76
2023/05/04 20:44:39;;;;;;;2.95;0.98;;;20.40;92.90;;;;;;1902396;74;21180;-76
2023/05/04 20:47:30;;;;;;;1.80;0.60;;;20.40;93.10;;;;;;1904742;75;21167;-76
2023/05/04 20:50:22;;;;;;;2.42;0.80;;;20.30;93.30;;;;;;1892727;75;21147;-76
2023/05/04 20:53:14;;;;;;;2.15;0.70;;;20.30;93.60;;;;;;1901583;75;21098;-76
2023/05/04 20:58:45;;;;;;;3.08;0.85;;;20.10;94.30;;;;;;1933732;72;22841;-76
2023/05/04 21:01:36;;;;;;;3.00;0.98;;;20.00;94.70;;;;;;1893826;75;21541;-76
2023/05/04 21:04:27;;;;;;;1.65;0.70;;;20.00;94.60;;;;;;1901583;75;21127;-76
2023/05/04 21:07:19;;;;;;;2.60;0.80;;;19.90;94.70;;;;;;1891864;75;21110;-76
2023/05/04 21:10:11;;;;;;;2.25;0.72;;;19.90;94.90;;;;;;1890591;75;21126;-77
2023/05/04 21:13:02;;;;;;;2.72;0.80;;;19.80;95.40;;;;;;1883190;75;21405;-76
2023/05/04 21:15:54;;;;;;;1.90;0.68;;;19.80;95.10;;;;;;1913348;75;21143;-76
2023/05/04 21:18:45;;;;;;;1.85;0.50;;;19.80;95.20;;;;;;1907884;75;21565;-77
2023/05/04 21:21:39;;;;;;;1.77;1.10;;;19.80;95.40;;;;;;1884016;76;21067;-89
2023/05/04 21:27:44;;;;;;;3.72;0.80;;;19.70;95.90;;;;;;1932123;74;22266;-80
2023/05/04 21:33:15;;;;;;;0.88;0.42;;;19.50;96.80;;;;;;1945987;72;22220;-80
2023/05/04 21:36:14;;;;;;;1.32;0.62;;;19.50;97.20;;;;;;1937612;73;21292;-81
2023/05/04 21:41:45;;;;;;;3.30;0.72;;;19.30;98.60;;;;;;1955290;72;22150;-80
2023/05/04 21:47:15;;;;;;;3.75;0.70;;;19.20;99.50;;;;;;1940592;72;22205;-80
2023/05/04 21:50:09;;;;;;;3.05;1.07;;;19.20;99.30;;;;;;1887786;75;21214;-80
2023/05/04 21:53:00;;;;;;;2.10;0.68;;;19.20;99.90;;;;;;1878821;75;21098;-80
2023/05/04 21:55:51;;;;;;;1.87;0.70;;;19.10;99.90;;;;;;1899947;74;21235;-80
2023/05/04 21:58:43;;;;;;;2.33;1.12;;;19.10;99.90;;;;;;1883087;75;21562;-80
2023/05/04 22:01:34;;;;;;;2.12;0.80;;;19.10;99.90;;;;;;1879419;75;21102;-80
2023/05/04 22:04:26;;;;;;;1.40;0.90;;;19.00;99.90;;;;;;1895556;74;21067;-80
2023/05/04 22:09:57;;;;;;;2.50;0.90;;;19.00;99.90;;;;;;1931122;72;22285;-80
2023/05/04 22:12:48;;;;;;;1.85;0.93;;;19.00;99.90;;;;;;1930957;73;21165;-80
2023/05/04 22:15:39;;;;;;;1.72;0.62;;;19.00;99.90;;;;;;1892095;75;21149;-80
2023/05/04 22:18:32;;;;;;;3.45;0.95;;;18.90;99.90;;;;;;1918831;73;21112;-80
2023/05/04 22:21:23;;;;;;;4.62;0.90;;;19.00;99.90;;;;;;1905204;75;21143;-80
2023/05/04 22:26:54;;;;;;;1.22;0.60;;;18.80;99.90;;;;;;1931795;72;22218;-80
2023/05/04 22:29:45;;;;;;;3.08;0.90;;;18.80;99.90;;;;;;1905309;75;21098;-81
2023/05/04 22:35:15;;;;;;;1.32;0.80;;;18.60;99.90;;;;;;1948169;72;22141;-80
2023/05/04 22:38:06;;;;;;;2.40;0.80;;;18.60;99.90;;;;;;1911252;74;21172;-80
2023/05/04 22:40:58;;;;;;;1.87;0.70;;;18.50;99.90;;;;;;1918319;74;21406;-80
2023/05/04 22:46:28;;;;;;;2.55;0.60;;;18.50;99.90;;;;;;1938510;72;22578;-80
2023/05/04 22:49:20;;;;;;;1.50;0.60;;;18.50;99.90;;;;;;1918237;74;21154;-80
2023/05/04 22:54:51;;;;;;;1.17;0.70;;;18.40;99.90;;;;;;1954110;72;22651;-80
2023/05/04 22:57:43;;;;;;;1.15;0.80;;;18.40;99.90;;;;;;1908010;74;21122;-80
2023/05/04 23:00:34;;;;;;;1.25;0.50;;;18.40;99.90;;;;;;1906731;74;21110;-80
2023/05/04 23:03:25;;;;;;;6.47;1.07;;;18.40;99.90;;;;;;1925294;74;21095;-80
2023/05/04 23:08:56;;;;;;;2.60;0.75;;;18.50;99.90;;;;;;1946007;72;22173;-80
2023/05/04 23:11:48;;;;;;;2.08;0.80;;;18.50;99.90;;;;;;1909077;74;21092;-80
2023/05/04 23:17:18;;;;;;;2.35;0.70;;;18.40;99.90;;;;;;1937626;72;22218;-80
2023/05/04 23:20:12;;;;;;;3.72;0.72;;;18.40;99.90;;;;;;1904246;75;21546;-80
2023/05/04 23:23:03;;;;;;;3.20;0.98;;;18.40;99.90;;;;;;1894691;75;21183;-80
2023/05/04 23:25:54;;;;;;;3.17;1.62;;;18.40;99.90;;;;;;1906014;75;21154;-80
2023/05/04 23:28:46;;;;;;;1.40;0.80;;;18.40;99.90;;;;;;1897345;75;21098;-80
2023/05/04 23:31:37;;;;;;;2.00;0.82;;;18.40;99.90;;;;;;1895484;75;21101;-80
2023/05/04 23:34:29;;;;;;;3.45;0.80;;;18.40;99.90;;;;;;1897840;75;21164;-80
2023/05/04 23:39:59;;;;;;;1.87;0.60;;;18.10;99.90;;;;;;1952823;72;22609;-80
2023/05/04 23:42:51;;;;;;;1.70;0.57;;;18.20;99.90;;;;;;1894842;75;21150;-80
2023/05/04 23:45:42;;;;;;;1.20;0.62;;;18.20;99.90;;;;;;1895534;75;21096;-80
2023/05/04 23:48:34;;;;;;;2.15;0.62;;;18.10;99.90;;;;;;1887269;75;21110;-80
2023/05/04 23:51:27;;;;;;;2.15;0.70;;;18.00;99.90;;;;;;1908352;75;21082;-80
2023/05/04 23:54:19;;;;;;;1.32;0.80;;;17.90;99.90;;;;;;1908342;75;21099;-80
2023/05/04 23:57:11;;;;;;;1.55;0.70;;;17.90;99.90;;;;;;1905635;75;21094;-80
